createdAt,value
2023-03-16T03:59:34.816Z,21.90
2023-03-16T04:02:06.754Z,22.30
2023-03-16T04:04:45.220Z,22.90
2023-03-16T04:07:18.455Z,21.00
2023-03-16T04:09:47.332Z,24.80
2023-03-16T04:12:37.512Z,26.60
2023-03-16T04:15:42.777Z,17.40
2023-03-16T04:18:38.499Z,19.60
2023-03-16T04:21:06.936Z,21.70
2023-03-16T04:23:34.699Z,21.30
2023-03-16T04:26:05.339Z,17.30
2023-03-16T04:28:34.248Z,19.60
2023-03-16T04:37:26.282Z,19.70
2023-03-16T04:40:15.256Z,23.80
2023-03-16T04:42:45.537Z,19.60
2023-03-16T04:45:15.277Z,20.50
2023-03-16T04:47:43.546Z,22.10
2023-03-16T04:50:19.320Z,22.40
2023-03-16T04:52:55.615Z,23.10
2023-03-16T04:55:25.242Z,23.50
2023-03-16T04:59:45.155Z,19.00
2023-03-16T05:02:47.421Z,17.70
2023-03-16T05:05:27.392Z,13.10
2023-03-16T05:07:57.324Z,20.20
2023-03-16T05:10:33.999Z,20.30
2023-03-16T05:13:13.806Z,20.80
2023-03-16T05:15:49.804Z,20.40
2023-03-16T05:18:32.214Z,20.50
2023-03-16T05:21:10.558Z,25.20
2023-03-16T05:23:52.700Z,20.10
2023-03-16T05:26:22.618Z,24.10
2023-03-16T05:29:19.561Z,23.10
2023-03-16T05:31:49.882Z,19.20
2023-03-16T05:34:21.556Z,21.10
2023-03-16T05:43:13.762Z,20.50
2023-03-16T05:45:48.253Z,24.60
2023-03-16T05:48:21.866Z,21.30
2023-03-16T05:50:53.909Z,22.60
2023-03-16T05:53:28.499Z,17.90
2023-03-16T05:56:03.658Z,20.80
2023-03-16T05:58:36.027Z,19.50
2023-03-16T06:01:11.620Z,19.00
2023-03-16T06:03:43.174Z,18.80
2023-03-16T06:06:36.167Z,19.20
2023-03-16T06:09:16.147Z,21.50
2023-03-16T06:11:47.452Z,22.30
2023-03-16T06:14:38.655Z,21.50
2023-03-16T06:17:17.153Z,20.80
2023-03-16T06:19:49.190Z,20.20
2023-03-16T06:22:22.322Z,20.30
2023-03-16T06:25:06.500Z,19.10
2023-03-16T06:27:59.203Z,22.70
2023-03-16T06:30:35.472Z,18.80
2023-03-16T06:33:48.971Z,20.40
2023-03-16T06:36:41.090Z,21.00
2023-03-16T06:39:32.133Z,21.10
2023-03-16T06:42:04.885Z,19.30
2023-03-16T06:44:36.519Z,19.60
2023-03-16T06:47:36.725Z,26.20
2023-03-16T06:50:12.817Z,20.90
2023-03-16T06:53:07.675Z,19.90
2023-03-16T07:02:35.694Z,20.10
2023-03-16T07:05:35.592Z,19.10
2023-03-16T07:08:09.453Z,17.50
2023-03-16T07:10:41.377Z,22.80
2023-03-16T07:14:12.067Z,22.80
2023-03-16T07:18:26.376Z,18.40
2023-03-16T07:20:55.594Z,20.90
2023-03-16T07:23:30.188Z,21.50
2023-03-16T07:26:04.106Z,24.90
2023-03-16T07:29:07.449Z,24.10
2023-03-16T07:31:38.353Z,24.20
2023-03-16T07:34:15.520Z,21.40
2023-03-16T07:39:40.093Z,20.30
2023-03-16T07:42:14.827Z,24.70
2023-03-16T07:45:20.170Z,21.00
2023-03-16T07:47:51.382Z,24.00
2023-03-16T07:50:30.122Z,24.10
2023-03-16T07:53:02.317Z,23.50
2023-03-16T07:56:14.718Z,24.20
2023-03-16T08:02:00.382Z,21.80
2023-03-16T08:04:45.181Z,23.90
2023-03-16T08:07:27.772Z,19.00
2023-03-16T08:10:04.386Z,24.60
2023-03-16T08:13:01.241Z,23.70
2023-03-16T08:16:47.294Z,20.10
2023-03-16T08:19:53.487Z,25.90
2023-03-16T08:22:30.626Z,26.00
2023-03-16T08:25:03.458Z,26.60
2023-03-16T08:27:39.284Z,22.40
2023-03-16T08:30:13.992Z,27.10
2023-03-16T08:32:47.108Z,21.10
2023-03-16T08:35:19.761Z,26.90
2023-03-16T08:37:56.056Z,24.00
2023-03-16T08:40:30.349Z,21.10
2023-03-16T08:43:01.053Z,25.00
2023-03-16T08:45:51.167Z,21.40
2023-03-16T08:51:00.100Z,21.80
2023-03-16T08:53:33.850Z,21.60
2023-03-16T08:56:15.479Z,22.20
2023-03-16T08:58:50.003Z,18.00
2023-03-16T09:01:34.121Z,20.60
2023-03-16T09:04:12.476Z,22.10
2023-03-16T09:06:42.973Z,19.90
2023-03-16T09:09:23.481Z,23.50
2023-03-16T09:15:10.640Z,21.60
2023-03-16T09:18:09.392Z,19.30
2023-03-16T09:20:40.890Z,19.20
2023-03-16T09:29:03.869Z,22.30
2023-03-16T09:48:48.412Z,22.80
2023-03-16T09:52:08.865Z,22.90
2023-03-16T09:59:41.253Z,17.60
2023-03-16T10:14:19.411Z,20.20
2023-03-16T10:17:47.533Z,22.90
2023-03-16T10:23:41.967Z,19.50
2023-03-16T10:26:39.394Z,21.60
2023-03-16T10:29:16.019Z,18.20
2023-03-16T10:31:45.413Z,18.80
2023-03-16T10:34:26.762Z,18.50
2023-03-16T10:40:12.773Z,20.90
2023-03-16T10:42:43.076Z,23.30
2023-03-16T10:45:48.591Z,21.20
2023-03-16T10:48:34.277Z,19.20
2023-03-16T10:54:15.540Z,18.60
2023-03-16T11:14:00.752Z,14.20
2023-03-16T11:17:08.822Z,15.20
2023-03-16T11:20:24.635Z,14.80
2023-03-16T11:23:11.837Z,13.70
2023-03-16T11:25:49.346Z,15.70
2023-03-16T11:37:58.223Z,15.10
2023-03-16T11:48:37.446Z,12.10
2023-03-16T11:51:31.993Z,11.30
2023-03-16T11:55:32.150Z,11.70
2023-03-16T12:02:00.906Z,10.10
2023-03-16T12:05:16.706Z,10.00
2023-03-16T12:11:25.331Z,9.90
2023-03-16T12:14:19.036Z,10.80
2023-03-16T12:16:50.162Z,10.60
2023-03-16T12:39:05.484Z,7.80
2023-03-16T12:42:06.040Z,8.10
2023-03-16T12:44:52.286Z,9.20
2023-03-16T12:47:47.236Z,7.50
2023-03-16T12:50:28.363Z,12.10
2023-03-16T12:53:45.367Z,7.60
2023-03-16T12:57:28.094Z,9.60
2023-03-16T13:00:01.433Z,7.90
2023-03-16T13:02:34.265Z,10.00
2023-03-16T13:05:20.421Z,9.50
2023-03-16T16:27:08.361Z,23.60
2023-03-16T16:36:38.460Z,15.00
2023-03-16T16:39:09.116Z,16.50
2023-03-16T16:41:37.786Z,12.90
2023-03-16T16:44:24.386Z,14.30
2023-03-16T16:46:55.122Z,18.20
2023-03-16T16:49:30.270Z,15.90
2023-03-16T16:51:58.704Z,24.60
2023-03-16T16:54:32.322Z,11.00
2023-03-16T16:57:08.217Z,13.30
2023-03-16T16:59:40.607Z,12.00
2023-03-16T17:02:22.628Z,13.20
2023-03-16T17:04:56.044Z,12.10
2023-03-16T17:07:24.863Z,17.10
2023-03-16T17:10:09.081Z,15.90
2023-03-16T17:13:09.038Z,13.80
2023-03-16T17:15:50.956Z,16.70
2023-03-16T17:18:23.186Z,14.30
2023-03-16T17:20:52.869Z,13.40
2023-03-16T17:23:33.480Z,15.70
2023-03-16T17:26:50.017Z,13.30
2023-03-16T17:29:33.992Z,15.80
2023-03-16T17:32:23.002Z,22.30
2023-03-16T17:35:21.128Z,15.90
2023-03-16T17:38:03.817Z,15.60
2023-03-16T17:46:44.658Z,15.90
2023-03-16T17:49:32.097Z,16.30
2023-03-16T18:00:16.163Z,15.30
2023-03-16T18:03:58.495Z,16.00
2023-03-16T18:55:17.418Z,12.40
2023-03-16T18:58:18.790Z,12.90
2023-03-16T19:01:09.963Z,14.90
2023-03-16T19:06:56.972Z,14.30
2023-03-16T20:16:55.006Z,14.10
2023-03-16T20:48:34.043Z,13.90
2023-03-16T20:58:18.618Z,14.30
2023-03-16T21:04:22.306Z,15.80
2023-03-16T21:06:51.443Z,14.90
2023-03-16T21:09:45.356Z,16.50
2023-03-16T21:12:50.335Z,19.00
2023-03-16T21:19:20.906Z,22.10
2023-03-16T21:22:37.461Z,18.50
2023-03-16T21:29:07.434Z,20.00
2023-03-16T21:31:37.833Z,16.40
2023-03-16T21:38:25.457Z,18.10
2023-03-16T21:40:56.939Z,15.30
2023-03-16T21:46:21.936Z,16.90
2023-03-16T21:48:55.226Z,16.00
2023-03-16T21:51:32.105Z,14.10
2023-03-16T21:55:32.417Z,13.10
2023-03-16T22:02:02.669Z,14.70
2023-03-16T22:05:39.983Z,15.90
2023-03-16T22:08:47.687Z,13.30
2023-03-16T22:17:16.723Z,12.30
2023-03-16T22:23:00.241Z,12.00
2023-03-16T22:28:55.186Z,14.30
2023-03-16T22:31:37.312Z,12.80
2023-03-16T22:47:55.637Z,14.60
2023-03-16T22:51:08.290Z,23.20
2023-03-16T22:53:54.141Z,31.20
2023-03-16T22:56:26.592Z,18.70
2023-03-16T22:59:29.112Z,23.00
2023-03-16T23:02:07.172Z,16.90
2023-03-16T23:07:36.265Z,18.20
2023-03-16T23:10:15.115Z,19.10
2023-03-16T23:12:46.800Z,16.00
2023-03-16T23:15:23.474Z,15.90
2023-03-16T23:18:29.693Z,16.00
2023-03-16T23:21:02.166Z,15.00
2023-03-16T23:23:30.986Z,31.70
2023-03-16T23:26:19.044Z,31.50
2023-03-16T23:29:13.226Z,23.90
2023-03-16T23:35:43.123Z,24.20
2023-03-16T23:38:31.415Z,20.90
2023-03-16T23:41:25.956Z,22.20
2023-03-16T23:46:53.539Z,19.90
2023-03-16T23:49:40.416Z,19.30
2023-03-16T23:55:05.992Z,22.30
